createdAt,value
2023-08-16T00:01:14.994Z,101744.13
2023-08-16T00:03:42.705Z,101757.72
2023-08-16T00:06:12.276Z,101742.88
2023-08-16T00:08:40.583Z,101742.38
2023-08-16T00:11:08.937Z,101744.50
2023-08-16T00:13:36.539Z,101739.41
2023-08-16T00:16:03.929Z,101748.41
2023-08-16T00:18:31.772Z,101743.94
2023-08-16T00:21:02.292Z,101738.53
2023-08-16T00:23:29.845Z,101737.59
2023-08-16T00:25:57.959Z,101745.69
2023-08-16T00:28:25.331Z,101745.75
2023-08-16T00:30:55.425Z,101749.44
2023-08-16T00:33:23.079Z,101751.31
2023-08-16T00:35:53.773Z,101754.84
2023-08-16T00:38:20.928Z,101754.63
2023-08-16T00:40:50.055Z,101763.25
2023-08-16T00:43:18.111Z,101770.09
2023-08-16T00:45:48.735Z,101767.19
2023-08-16T00:48:16.682Z,101760.69
2023-08-16T00:50:44.996Z,101755.28
2023-08-16T00:53:15.187Z,101758.91
2023-08-16T00:55:42.375Z,101754.50
2023-08-16T00:58:09.721Z,101754.50
2023-08-16T01:00:37.471Z,101758.16
2023-08-16T01:03:04.652Z,101766.34
2023-08-16T01:05:32.305Z,101766.41
2023-08-16T01:08:01.076Z,101771.69
2023-08-16T01:11:42.294Z,101770.81
2023-08-16T01:14:25.592Z,101773.44
2023-08-16T01:16:54.716Z,101778.78
2023-08-16T01:19:30.249Z,101777.81
2023-08-16T01:22:17.643Z,101776.84
2023-08-16T01:25:21.794Z,101777.75
2023-08-16T01:27:52.803Z,101780.50
2023-08-16T01:30:22.054Z,101780.50
2023-08-16T01:32:49.937Z,101778.78
2023-08-16T01:35:17.402Z,101773.34
2023-08-16T01:37:46.413Z,101776.00
2023-08-16T01:40:14.393Z,101783.09
2023-08-16T01:42:49.597Z,101779.63
2023-08-16T01:45:19.724Z,101781.25
2023-08-16T01:47:48.680Z,101782.19
2023-08-16T01:50:17.561Z,101784.09
2023-08-16T01:52:44.882Z,101774.41
2023-08-16T01:55:12.227Z,101785.97
2023-08-16T01:57:39.309Z,101788.88
2023-08-16T02:00:07.617Z,101788.94
2023-08-16T02:02:42.485Z,101795.16
2023-08-16T02:05:09.881Z,101797.13
2023-08-16T02:07:38.939Z,101795.38
2023-08-16T02:10:06.586Z,101804.25
2023-08-16T02:12:34.521Z,101797.19
2023-08-16T02:15:01.957Z,101798.19
2023-08-16T02:17:29.055Z,101805.34
2023-08-16T02:19:56.223Z,101802.59
2023-08-16T02:22:24.950Z,101806.06
2023-08-16T02:24:52.972Z,101809.53
2023-08-16T02:27:20.076Z,101809.44
2023-08-16T02:29:47.211Z,101814.00
2023-08-16T02:32:14.283Z,101805.97
2023-08-16T02:34:41.361Z,101799.00
2023-08-16T02:37:08.477Z,101798.19
2023-08-16T02:39:35.550Z,101789.47
2023-08-16T02:42:03.046Z,101786.94
2023-08-16T02:44:30.125Z,101786.41
2023-08-16T02:46:57.829Z,101790.94
2023-08-16T02:49:24.887Z,101791.81
2023-08-16T02:51:51.956Z,101792.81
2023-08-16T02:54:19.058Z,101797.38
2023-08-16T02:56:46.120Z,101801.06
2023-08-16T02:59:15.265Z,101790.50
2023-08-16T03:01:42.530Z,101793.25
2023-08-16T03:04:11.365Z,101797.00
2023-08-16T03:06:38.411Z,101794.56
2023-08-16T03:09:05.830Z,101782.16
2023-08-16T03:11:32.889Z,101782.53
2023-08-16T03:14:00.046Z,101795.22
2023-08-16T03:16:27.187Z,101795.44
2023-08-16T03:18:57.650Z,101793.81
2023-08-16T03:21:24.734Z,101793.06
2023-08-16T03:23:52.744Z,101804.75
2023-08-16T03:26:19.938Z,101803.03
2023-08-16T03:28:47.890Z,101804.16
2023-08-16T03:31:15.176Z,101810.59
2023-08-16T03:33:43.266Z,101813.41
2023-08-16T03:36:10.582Z,101817.94
2023-08-16T03:38:38.045Z,101814.47
2023-08-16T03:41:05.378Z,101820.00
2023-08-16T03:43:32.491Z,101825.50
2023-08-16T03:46:00.212Z,101823.88
2023-08-16T03:48:28.439Z,101823.16
2023-08-16T03:50:55.542Z,101817.94
2023-08-16T03:53:22.910Z,101818.97
2023-08-16T03:55:56.923Z,101812.91
2023-08-16T03:58:25.443Z,101820.94
2023-08-16T04:00:53.491Z,101826.28
2023-08-16T04:03:21.675Z,101828.00
2023-08-16T04:05:48.864Z,101825.41
2023-08-16T04:08:16.978Z,101828.00
2023-08-16T04:10:44.156Z,101833.41
2023-08-16T04:13:11.407Z,101833.50
2023-08-16T04:15:38.526Z,101837.94
2023-08-16T04:18:05.677Z,101838.81
2023-08-16T04:20:32.761Z,101837.94
2023-08-16T04:23:00.813Z,101837.22
2023-08-16T04:25:28.018Z,101835.41
2023-08-16T04:27:55.646Z,101836.28
2023-08-16T04:30:23.701Z,101836.28
2023-08-16T04:32:50.852Z,101841.63
2023-08-16T04:35:18.732Z,101843.56
2023-08-16T04:37:45.970Z,101840.00
2023-08-16T04:40:13.623Z,101830.16
2023-08-16T04:42:40.701Z,101839.03
2023-08-16T04:45:08.639Z,101845.22
2023-08-16T04:47:36.623Z,101848.81
2023-08-16T04:50:07.370Z,101850.66
2023-08-16T04:52:37.034Z,101852.41
2023-08-16T04:55:09.775Z,101856.06
2023-08-16T04:57:38.372Z,101845.41
2023-08-16T05:00:10.109Z,101849.81
2023-08-16T05:02:44.373Z,101857.81
2023-08-16T05:05:13.319Z,101857.81
2023-08-16T05:07:40.721Z,101866.59
2023-08-16T05:10:08.257Z,101866.59
2023-08-16T05:12:35.344Z,101871.88
2023-08-16T05:15:02.395Z,101869.19
2023-08-16T05:17:31.865Z,101869.06
2023-08-16T05:19:59.209Z,101877.91
2023-08-16T05:22:26.294Z,101878.81
2023-08-16T05:24:53.338Z,101879.75
2023-08-16T05:27:20.385Z,101889.47
2023-08-16T05:29:48.162Z,101890.25
2023-08-16T05:32:15.477Z,101879.66
2023-08-16T05:34:42.585Z,101879.53
2023-08-16T05:37:10.462Z,101890.03
2023-08-16T05:39:39.899Z,101888.06
2023-08-16T05:42:07.874Z,101887.06
2023-08-16T05:44:34.945Z,101886.00
2023-08-16T05:47:02.097Z,101870.66
2023-08-16T05:49:30.061Z,101859.94
2023-08-16T05:51:57.215Z,101865.13
2023-08-16T05:54:25.054Z,101867.75
2023-08-16T05:56:52.135Z,101879.13
2023-08-16T05:59:19.398Z,101870.81
2023-08-16T06:01:46.451Z,101874.03
2023-08-16T06:04:13.661Z,101882.97
2023-08-16T06:06:40.813Z,101886.25
2023-08-16T06:09:07.850Z,101879.06
2023-08-16T06:11:34.867Z,101878.72
2023-08-16T06:14:02.077Z,101876.47
2023-08-16T06:16:29.230Z,101879.81
2023-08-16T06:18:57.209Z,101883.66
2023-08-16T06:21:24.329Z,101892.66
2023-08-16T06:23:52.226Z,101892.38
2023-08-16T06:26:19.253Z,101895.91
2023-08-16T06:28:47.318Z,101898.59
2023-08-16T06:31:17.602Z,101896.63
2023-08-16T06:33:45.006Z,101889.47
2023-08-16T06:36:12.213Z,101887.81
2023-08-16T06:38:39.259Z,101885.88
2023-08-16T06:41:06.391Z,101883.91
2023-08-16T06:43:33.536Z,101890.75
2023-08-16T06:46:00.735Z,101894.47
2023-08-16T06:48:28.698Z,101895.25
2023-08-16T06:50:56.222Z,101896.69
2023-08-16T06:53:23.386Z,101902.38
2023-08-16T06:55:50.448Z,101903.38
2023-08-16T06:58:17.999Z,101901.22
2023-08-16T07:00:46.749Z,101905.53
2023-08-16T07:03:13.984Z,101901.69
2023-08-16T07:05:41.147Z,101899.06
2023-08-16T07:08:08.759Z,101911.50
2023-08-16T07:10:36.309Z,101908.44
2023-08-16T07:13:03.865Z,101906.66
2023-08-16T07:15:31.251Z,101904.34
2023-08-16T07:17:58.299Z,101895.44
2023-08-16T07:20:25.465Z,101907.16
2023-08-16T07:22:52.621Z,101917.81
2023-08-16T07:25:19.767Z,101913.66
2023-08-16T07:27:46.830Z,101912.97
2023-08-16T07:30:14.121Z,101927.91
2023-08-16T07:32:41.255Z,101921.03
2023-08-16T07:35:09.509Z,101910.38
2023-08-16T07:37:38.064Z,101917.41
2023-08-16T07:40:06.218Z,101909.53
2023-08-16T07:42:33.395Z,101914.34
2023-08-16T07:45:02.141Z,101919.81
2023-08-16T07:47:29.633Z,101915.16
2023-08-16T07:49:56.828Z,101916.78
2023-08-16T07:52:24.067Z,101919.16
2023-08-16T07:54:51.435Z,101920.38
2023-08-16T07:57:18.525Z,101917.28
2023-08-16T07:59:45.525Z,101921.34
2023-08-16T08:02:13.200Z,101923.13
2023-08-16T08:04:40.317Z,101924.25
2023-08-16T08:07:08.077Z,101928.78
2023-08-16T08:09:35.186Z,101931.72
2023-08-16T08:12:02.341Z,101933.19
2023-08-16T08:14:29.487Z,101943.72
2023-08-16T08:16:57.647Z,101943.97
2023-08-16T08:19:24.890Z,101937.84
2023-08-16T08:21:52.426Z,101940.63
2023-08-16T08:24:19.633Z,101940.44
2023-08-16T08:26:47.972Z,101945.13
2023-08-16T08:29:15.046Z,101945.13
2023-08-16T08:31:42.165Z,101953.84
2023-08-16T08:34:09.733Z,101954.69
2023-08-16T08:36:36.822Z,101951.47
2023-08-16T08:39:04.447Z,101949.47
2023-08-16T08:41:47.417Z,101951.25
2023-08-16T08:44:17.481Z,101953.94
2023-08-16T08:46:47.730Z,101947.16
2023-08-16T08:49:21.344Z,101948.28
2023-08-16T08:51:48.680Z,101949.69
2023-08-16T08:54:15.868Z,101951.97
2023-08-16T08:56:46.330Z,101946.31
2023-08-16T08:59:15.776Z,101952.63
2023-08-16T09:01:47.447Z,101954.66
2023-08-16T09:04:17.044Z,101952.78
2023-08-16T09:06:44.352Z,101950.66
2023-08-16T09:09:13.432Z,101948.16
2023-08-16T09:11:42.770Z,101946.34
2023-08-16T09:14:10.573Z,101948.06
2023-08-16T09:16:37.624Z,101949.97
2023-08-16T09:19:14.526Z,101957.00
2023-08-16T09:21:44.576Z,101943.13
2023-08-16T09:24:11.648Z,101949.94
2023-08-16T09:26:39.097Z,101944.81
2023-08-16T09:29:06.318Z,101946.47
2023-08-16T09:31:42.650Z,101948.47
2023-08-16T09:34:13.044Z,101952.19
2023-08-16T09:36:46.457Z,101953.38
2023-08-16T09:39:13.661Z,101949.56
2023-08-16T09:41:51.406Z,101958.94
2023-08-16T09:44:19.632Z,101955.72
2023-08-16T09:49:18.187Z,101942.88
2023-08-16T09:54:19.091Z,101955.94
2023-08-16T10:01:54.127Z,101937.47
2023-08-16T10:04:59.335Z,101936.66
2023-08-16T10:07:13.728Z,101934.72
2023-08-16T10:09:45.209Z,101940.00
2023-08-16T10:12:13.115Z,101931.44
2023-08-16T10:14:40.634Z,101928.41
2023-08-16T10:17:11.784Z,101929.31
2023-08-16T10:19:45.270Z,101933.19
2023-08-16T10:22:34.512Z,101944.72
2023-08-16T10:25:12.407Z,101948.03
2023-08-16T10:27:44.954Z,101942.75
2023-08-16T10:30:28.333Z,101944.94
2023-08-16T10:33:10.400Z,101943.28
2023-08-16T10:35:41.053Z,101943.53
2023-08-16T10:38:08.730Z,101937.97
2023-08-16T10:40:35.859Z,101942.28
2023-08-16T10:43:08.353Z,101925.91
2023-08-16T10:48:19.190Z,101923.09
2023-08-16T10:50:59.496Z,101929.19
2023-08-16T10:53:27.229Z,101926.81
2023-08-16T10:55:56.592Z,101937.13
2023-08-16T10:58:24.936Z,101943.81
2023-08-16T11:01:05.207Z,101938.06
2023-08-16T11:03:35.038Z,101930.41
2023-08-16T11:06:09.993Z,101932.97
2023-08-16T11:08:44.714Z,101931.44
2023-08-16T11:11:13.552Z,101934.00
2023-08-16T11:13:44.057Z,101924.13
2023-08-16T11:16:14.446Z,101929.41
2023-08-16T11:18:43.776Z,101929.72
2023-08-16T11:21:15.362Z,101934.88
2023-08-16T11:23:43.726Z,101937.69
2023-08-16T11:26:12.121Z,101932.13
2023-08-16T11:28:41.817Z,101929.25
2023-08-16T11:31:10.343Z,101924.94
2023-08-16T11:33:42.049Z,101926.78
2023-08-16T11:36:12.828Z,101928.44
2023-08-16T11:38:40.560Z,101925.19
2023-08-16T11:41:08.146Z,101923.19
2023-08-16T11:43:37.268Z,101922.13
2023-08-16T11:46:06.294Z,101924.78
2023-08-16T11:48:36.062Z,101925.28
2023-08-16T11:51:03.888Z,101918.13
2023-08-16T11:53:33.821Z,101918.75
2023-08-16T11:56:13.933Z,101910.63
2023-08-16T11:58:45.536Z,101906.88
2023-08-16T12:01:16.069Z,101910.75
2023-08-16T12:03:47.570Z,101914.16
2023-08-16T12:06:17.289Z,101908.44
2023-08-16T12:08:49.597Z,101898.88
2023-08-16T12:11:37.011Z,101897.06
2023-08-16T12:14:07.181Z,101897.28
2023-08-16T12:16:35.340Z,101896.34
2023-08-16T12:19:02.582Z,101898.69
2023-08-16T12:21:29.880Z,101899.78
2023-08-16T12:23:57.038Z,101900.91
2023-08-16T12:26:24.117Z,101899.22
2023-08-16T12:28:51.151Z,101893.00
2023-08-16T12:31:18.281Z,101891.53
2023-08-16T12:33:46.359Z,101885.41
2023-08-16T12:36:14.398Z,101888.03
2023-08-16T12:38:41.875Z,101877.94
2023-08-16T12:41:08.999Z,101880.06
2023-08-16T12:43:39.665Z,101880.41
2023-08-16T12:46:09.629Z,101878.69
2023-08-16T12:48:37.322Z,101880.75
2023-08-16T12:51:05.035Z,101881.34
2023-08-16T12:53:38.227Z,101878.75
2023-08-16T12:56:07.055Z,101884.22
2023-08-16T12:58:34.784Z,101881.34
2023-08-16T13:03:33.863Z,101879.75
2023-08-16T13:08:34.010Z,101874.88
2023-08-16T13:11:32.458Z,101881.34
2023-08-16T13:14:02.055Z,101876.47
2023-08-16T13:16:31.730Z,101877.81
2023-08-16T13:19:02.639Z,101875.47
2023-08-16T13:29:29.812Z,101862.00
2023-08-16T13:37:00.094Z,101855.59
2023-08-16T13:39:31.670Z,101857.59
2023-08-16T13:42:17.242Z,101861.03
2023-08-16T13:45:16.136Z,101857.88
2023-08-16T13:47:32.496Z,101859.47
2023-08-16T13:49:59.685Z,101861.94
2023-08-16T13:52:27.147Z,101858.88
2023-08-16T13:54:54.587Z,101858.13
2023-08-16T13:57:22.131Z,101859.63
2023-08-16T13:59:49.219Z,101860.47
2023-08-16T14:02:16.379Z,101860.59
2023-08-16T14:04:43.632Z,101866.00
2023-08-16T14:07:10.670Z,101865.59
2023-08-16T14:09:37.782Z,101868.66
2023-08-16T14:12:05.228Z,101862.63
2023-08-16T14:14:32.287Z,101866.03
2023-08-16T14:16:59.457Z,101866.72
2023-08-16T14:19:26.907Z,101868.38
2023-08-16T14:21:57.331Z,101867.81
2023-08-16T14:24:26.013Z,101862.56
2023-08-16T14:26:53.463Z,101868.28
2023-08-16T14:29:20.727Z,101862.59
2023-08-16T14:31:47.823Z,101852.69
2023-08-16T14:34:14.929Z,101862.47
2023-08-16T14:36:41.985Z,101865.19
2023-08-16T14:39:09.731Z,101863.03
2023-08-16T14:41:38.425Z,101871.53
2023-08-16T14:44:05.834Z,101872.63
2023-08-16T14:46:32.882Z,101871.66
2023-08-16T14:49:00.080Z,101872.13
2023-08-16T14:51:27.138Z,101865.41
2023-08-16T14:53:54.207Z,101866.16
2023-08-16T14:56:21.293Z,101872.13
2023-08-16T14:58:48.671Z,101861.66
2023-08-16T15:01:15.848Z,101870.81
2023-08-16T15:03:43.022Z,101865.56
2023-08-16T15:06:10.242Z,101871.38
2023-08-16T15:08:39.422Z,101874.53
2023-08-16T15:11:20.364Z,101869.94
2023-08-16T15:13:47.479Z,101864.13
2023-08-16T15:16:15.446Z,101865.84
2023-08-16T15:18:42.757Z,101866.34
2023-08-16T15:21:09.922Z,101864.22
2023-08-16T15:23:38.231Z,101856.31
2023-08-16T15:26:08.065Z,101851.97
2023-08-16T15:28:37.080Z,101845.81
2023-08-16T15:31:06.209Z,101852.13
2023-08-16T15:33:34.139Z,101841.00
2023-08-16T15:36:01.268Z,101846.59
2023-08-16T15:38:44.193Z,101850.38
2023-08-16T15:41:15.616Z,101842.44
2023-08-16T15:43:44.742Z,101841.25
2023-08-16T15:46:14.884Z,101835.59
2023-08-16T15:48:42.285Z,101833.44
2023-08-16T15:51:09.494Z,101833.16
2023-08-16T15:53:36.591Z,101838.34
2023-08-16T15:56:04.702Z,101829.19
2023-08-16T15:58:32.686Z,101834.38
2023-08-16T16:01:02.155Z,101829.81
2023-08-16T16:03:31.656Z,101831.25
2023-08-16T16:05:59.311Z,101833.31
2023-08-16T16:08:29.757Z,101835.44
2023-08-16T16:10:57.154Z,101836.84
2023-08-16T16:13:24.610Z,101835.69
2023-08-16T16:15:52.064Z,101833.06
2023-08-16T16:18:20.916Z,101835.56
2023-08-16T16:20:48.902Z,101833.72
2023-08-16T16:23:15.966Z,101818.16
2023-08-16T16:25:43.164Z,101825.22
2023-08-16T16:28:10.298Z,101818.16
2023-08-16T16:30:37.341Z,101815.88
2023-08-16T16:33:06.243Z,101815.88
2023-08-16T16:35:35.646Z,101811.69
2023-08-16T16:38:02.934Z,101812.84
2023-08-16T16:40:30.860Z,101822.09
2023-08-16T16:42:58.024Z,101817.03
2023-08-16T16:45:25.188Z,101819.31
2023-08-16T16:47:52.353Z,101813.47
2023-08-16T16:50:19.615Z,101811.28
2023-08-16T16:52:46.727Z,101809.69
2023-08-16T16:55:13.809Z,101813.31
2023-08-16T16:57:41.973Z,101807.19
2023-08-16T17:00:11.581Z,101800.72
2023-08-16T17:02:38.727Z,101799.31
2023-08-16T17:05:06.494Z,101797.72
2023-08-16T17:07:34.302Z,101804.03
2023-08-16T17:10:01.483Z,101807.69
2023-08-16T17:12:28.601Z,101799.75
2023-08-16T17:14:55.622Z,101801.66
2023-08-16T17:17:22.644Z,101798.34
2023-08-16T17:19:49.734Z,101796.72
2023-08-16T17:22:16.847Z,101794.88
2023-08-16T17:24:43.891Z,101791.44
2023-08-16T17:27:10.948Z,101789.81
2023-08-16T17:29:38.021Z,101799.81
2023-08-16T17:32:05.287Z,101789.06
2023-08-16T17:34:32.380Z,101791.84
2023-08-16T17:36:59.443Z,101784.00
2023-08-16T17:39:26.634Z,101784.22
2023-08-16T17:41:53.804Z,101795.94
2023-08-16T17:44:20.884Z,101805.34
2023-08-16T17:46:48.022Z,101812.75
2023-08-16T17:49:15.038Z,101816.50
2023-08-16T17:51:42.128Z,101814.97
2023-08-16T17:54:09.147Z,101813.66
2023-08-16T17:56:36.681Z,101811.16
2023-08-16T17:59:03.907Z,101813.38
2023-08-16T18:01:31.059Z,101812.81
2023-08-16T18:03:58.372Z,101809.56
2023-08-16T18:06:25.470Z,101809.88
2023-08-16T18:08:52.490Z,101802.19
2023-08-16T18:11:19.555Z,101806.13
2023-08-16T18:13:46.688Z,101806.34
2023-08-16T18:16:13.883Z,101802.97
2023-08-16T18:18:41.030Z,101802.22
2023-08-16T18:21:08.028Z,101806.06
2023-08-16T18:23:35.105Z,101805.28
2023-08-16T18:26:02.168Z,101809.16
2023-08-16T18:28:29.231Z,101808.56
2023-08-16T18:30:56.406Z,101807.22
2023-08-16T18:33:23.635Z,101809.25
2023-08-16T18:35:50.735Z,101806.75
2023-08-16T18:38:17.935Z,101802.44
2023-08-16T18:40:45.079Z,101808.00
2023-08-16T18:43:12.164Z,101807.22
2023-08-16T18:45:39.683Z,101813.81
2023-08-16T18:48:07.060Z,101816.69
2023-08-16T18:50:34.180Z,101814.97
2023-08-16T18:53:01.292Z,101819.53
2023-08-16T18:55:28.380Z,101824.31
2023-08-16T18:57:56.392Z,101827.97
2023-08-16T19:00:23.443Z,101832.75
2023-08-16T19:02:50.619Z,101846.16
2023-08-16T19:05:17.749Z,101847.28
2023-08-16T19:07:44.847Z,101852.75
2023-08-16T19:10:11.893Z,101855.53
2023-08-16T19:12:39.008Z,101856.59
2023-08-16T19:15:07.029Z,101853.13
2023-08-16T19:17:34.076Z,101851.56
2023-08-16T19:20:01.116Z,101852.72
2023-08-16T19:22:29.078Z,101854.63
2023-08-16T19:24:56.196Z,101846.94
2023-08-16T19:27:23.627Z,101845.31
2023-08-16T19:29:53.211Z,101847.31
2023-08-16T19:32:21.065Z,101840.31
2023-08-16T19:34:48.216Z,101847.47
2023-08-16T19:37:15.482Z,101840.59
2023-08-16T19:39:42.579Z,101837.91
2023-08-16T19:42:09.660Z,101835.28
2023-08-16T19:44:36.786Z,101832.81
2023-08-16T19:47:04.935Z,101828.47
2023-08-16T19:49:31.960Z,101821.50
2023-08-16T19:51:59.007Z,101828.75
2023-08-16T19:54:26.031Z,101814.59
2023-08-16T19:56:53.052Z,101820.91
2023-08-16T19:59:20.076Z,101815.72
2023-08-16T20:01:47.208Z,101804.91
2023-08-16T20:04:14.392Z,101806.13
2023-08-16T20:06:42.726Z,101809.84
2023-08-16T20:09:10.653Z,101810.19
2023-08-16T20:11:37.741Z,101808.63
2023-08-16T20:14:05.090Z,101810.53
2023-08-16T20:16:32.362Z,101806.38
2023-08-16T20:18:59.484Z,101805.38
2023-08-16T20:21:26.616Z,101807.94
2023-08-16T20:23:53.691Z,101810.63
2023-08-16T20:26:20.883Z,101801.91
2023-08-16T20:28:48.017Z,101808.22
2023-08-16T20:31:15.188Z,101811.94
2023-08-16T20:33:42.359Z,101811.00
2023-08-16T20:36:12.143Z,101808.38
2023-08-16T20:38:42.068Z,101825.41
2023-08-16T20:41:09.131Z,101830.69
2023-08-16T20:43:36.175Z,101822.66
2023-08-16T20:46:05.569Z,101831.63
2023-08-16T20:48:32.699Z,101828.97
2023-08-16T20:50:59.764Z,101834.31
2023-08-16T20:53:26.847Z,101838.78
2023-08-16T20:55:54.052Z,101844.06
2023-08-16T20:58:21.167Z,101844.16
2023-08-16T21:00:48.312Z,101833.25
2023-08-16T21:03:15.369Z,101832.41
2023-08-16T21:05:43.066Z,101829.75
2023-08-16T21:08:10.646Z,101828.97
2023-08-16T21:10:37.753Z,101824.44
2023-08-16T21:13:04.839Z,101830.69
2023-08-16T21:15:31.865Z,101829.81
2023-08-16T21:17:58.977Z,101826.28
2023-08-16T21:20:26.335Z,101820.81
2023-08-16T21:22:53.465Z,101829.75
2023-08-16T21:25:20.572Z,101823.59
2023-08-16T21:27:47.609Z,101828.06
2023-08-16T21:30:15.014Z,101831.63
2023-08-16T21:32:42.146Z,101826.19
2023-08-16T21:35:09.551Z,101824.19
2023-08-16T21:37:36.665Z,101824.28
2023-08-16T21:40:05.243Z,101823.34
2023-08-16T21:42:32.246Z,101818.94
2023-08-16T21:44:59.352Z,101817.19
2023-08-16T21:47:27.007Z,101810.00
2023-08-16T21:49:54.524Z,101809.06
2023-08-16T21:52:21.731Z,101809.06
2023-08-16T21:54:48.773Z,101809.06
2023-08-16T21:57:16.041Z,101803.91
2023-08-16T21:59:43.249Z,101806.59
2023-08-16T22:02:10.277Z,101801.50
2023-08-16T22:04:37.394Z,101802.44
2023-08-16T22:07:04.985Z,101801.66
2023-08-16T22:09:34.066Z,101807.97
2023-08-16T22:12:02.254Z,101809.16
2023-08-16T22:14:29.605Z,101806.50
2023-08-16T22:16:56.722Z,101802.19
2023-08-16T22:19:23.986Z,101796.19
2023-08-16T22:21:51.027Z,101801.81
2023-08-16T22:24:18.392Z,101799.50
2023-08-16T22:26:45.458Z,101798.03
2023-08-16T22:29:13.621Z,101804.94
2023-08-16T22:31:40.712Z,101803.63
2023-08-16T22:34:07.774Z,101805.84
2023-08-16T22:36:35.319Z,101804.44
2023-08-16T22:39:02.917Z,101801.22
2023-08-16T22:41:29.986Z,101796.97
2023-08-16T22:43:57.040Z,101794.44
2023-08-16T22:46:24.080Z,101795.72
2023-08-16T22:48:51.173Z,101803.31
2023-08-16T22:51:18.283Z,101808.09
2023-08-16T22:53:45.361Z,101814.41
2023-08-16T22:56:12.422Z,101809.28
2023-08-16T22:58:44.441Z,101815.75
2023-08-16T23:01:12.604Z,101813.94
2023-08-16T23:03:39.640Z,101809.69
2023-08-16T23:06:06.717Z,101818.66
2023-08-16T23:08:33.790Z,101823.22
2023-08-16T23:11:00.925Z,101823.59
2023-08-16T23:13:27.993Z,101820.25
2023-08-16T23:15:55.012Z,101818.81
2023-08-16T23:18:22.059Z,101822.50
2023-08-16T23:20:49.078Z,101820.00
2023-08-16T23:23:16.363Z,101821.00
2023-08-16T23:25:43.666Z,101822.91
2023-08-16T23:28:10.812Z,101820.50
2023-08-16T23:30:38.299Z,101812.47
2023-08-16T23:33:05.646Z,101818.63
2023-08-16T23:35:32.722Z,101815.28
2023-08-16T23:37:59.846Z,101819.00
2023-08-16T23:40:27.533Z,101817.34
2023-08-16T23:42:54.582Z,101816.50
2023-08-16T23:45:21.631Z,101816.25
2023-08-16T23:47:48.772Z,101817.19
2023-08-16T23:50:16.004Z,101819.94
2023-08-16T23:52:43.115Z,101830.69
2023-08-16T23:55:10.601Z,101830.56
2023-08-16T23:57:37.730Z,101825.13
